createdAt,value
2017-05-23T00:00:14.606Z,100298
2017-05-23T00:01:15.612Z,100289
2017-05-23T00:02:14.698Z,100296
2017-05-23T00:03:14.759Z,100286
2017-05-23T00:04:14.824Z,100297
2017-05-23T00:05:15.866Z,100297
2017-05-23T00:06:14.920Z,100300
2017-05-23T00:07:14.917Z,100294
2017-05-23T00:08:14.981Z,100300
2017-05-23T00:09:16.013Z,100297
2017-05-23T00:10:15.023Z,100299
2017-05-23T00:11:15.079Z,100296
2017-05-23T00:12:15.154Z,100296
2017-05-23T00:13:15.195Z,100298
2017-05-23T00:14:16.153Z,100286
2017-05-23T00:15:15.244Z,100293
2017-05-23T00:16:15.300Z,100294
2017-05-23T00:17:15.365Z,100292
2017-05-23T00:18:15.454Z,100299
2017-05-23T00:19:15.466Z,100293
2017-05-23T00:20:16.486Z,100291
2017-05-23T00:21:16.546Z,100290
2017-05-23T00:22:16.578Z,100277
2017-05-23T00:23:15.657Z,100296
2017-05-23T00:24:16.670Z,100291
2017-05-23T00:25:15.785Z,100286
2017-05-23T00:26:16.770Z,100282
2017-05-23T00:27:15.893Z,100279
2017-05-23T00:28:15.862Z,100281
2017-05-23T00:29:15.935Z,100277
2017-05-23T00:30:16.089Z,100273
2017-05-23T00:31:17.046Z,100280
2017-05-23T00:32:16.049Z,100282
2017-05-23T00:33:16.117Z,100274
2017-05-23T00:34:17.126Z,100278
2017-05-23T00:35:16.260Z,100277
2017-05-23T00:36:16.359Z,100276
2017-05-23T00:37:16.399Z,100273
2017-05-23T00:38:17.476Z,100268
2017-05-23T00:40:16.587Z,100270
2017-05-23T00:41:16.635Z,100268
2017-05-23T00:42:17.588Z,100265
2017-05-23T00:43:17.653Z,100268
2017-05-23T00:44:17.712Z,100265
2017-05-23T00:45:16.847Z,100263
2017-05-23T00:46:17.895Z,100264
2017-05-23T00:47:17.975Z,100260
2017-05-23T00:48:17.998Z,100262
2017-05-23T00:49:17.162Z,100265
2017-05-23T00:50:18.154Z,100263
2017-05-23T00:51:17.242Z,100260
2017-05-23T00:52:17.240Z,100262
2017-05-23T00:53:17.258Z,100262
2017-05-23T00:54:18.291Z,100258
2017-05-23T00:55:17.319Z,100249
2017-05-23T00:56:18.422Z,100255
2017-05-23T00:57:17.521Z,100255
2017-05-23T00:58:18.473Z,100256
2017-05-23T00:59:18.498Z,100260
2017-05-23T01:00:18.557Z,100256
2017-05-23T01:01:18.615Z,100259
2017-05-23T01:02:17.750Z,100251
2017-05-23T01:03:18.684Z,100258
2017-05-23T01:04:17.833Z,100259
2017-05-23T01:05:17.836Z,100250
2017-05-23T01:06:17.893Z,100258
2017-05-23T01:07:17.989Z,100263
2017-05-23T01:08:17.985Z,100260
2017-05-23T01:09:18.098Z,100258
2017-05-23T01:10:18.140Z,100259
2017-05-23T01:11:19.083Z,100256
2017-05-23T01:12:18.185Z,100260
2017-05-23T01:13:19.144Z,100259
2017-05-23T01:14:18.209Z,100260
2017-05-23T01:15:18.293Z,100261
2017-05-23T01:16:18.395Z,100257
2017-05-23T01:17:19.367Z,100256
2017-05-23T01:18:18.421Z,100250
2017-05-23T01:19:18.508Z,100256
2017-05-23T01:20:18.475Z,100257
2017-05-23T01:21:18.501Z,100256
2017-05-23T01:22:18.560Z,100256
2017-05-23T01:23:18.563Z,100248
2017-05-23T01:24:19.624Z,100255
2017-05-23T01:25:19.685Z,100256
2017-05-23T01:26:18.749Z,100258
2017-05-23T01:27:18.799Z,100260
2017-05-23T01:28:19.753Z,100250
2017-05-23T01:29:18.854Z,100256
2017-05-23T01:30:19.830Z,100261
2017-05-23T01:31:18.891Z,100258
2017-05-23T01:32:20.007Z,100257
2017-05-23T01:33:20.004Z,100261
2017-05-23T01:34:19.012Z,100260
2017-05-23T01:35:20.068Z,100261
2017-05-23T01:36:20.125Z,100253
2017-05-23T01:37:19.208Z,100256
2017-05-23T01:38:20.194Z,100258
2017-05-23T01:39:20.257Z,100253
2017-05-23T01:40:19.349Z,100258
2017-05-23T01:41:19.371Z,100248
2017-05-23T01:42:20.428Z,100255
2017-05-23T01:43:20.516Z,100256
2017-05-23T01:44:19.630Z,100255
2017-05-23T01:45:20.565Z,100260
2017-05-23T01:46:19.698Z,100252
2017-05-23T01:47:19.772Z,100251
2017-05-23T01:48:20.793Z,100253
2017-05-23T01:49:20.989Z,100252
2017-05-23T01:50:20.861Z,100250
2017-05-23T01:51:20.951Z,100251
2017-05-23T01:52:21.007Z,100253
2017-05-23T01:53:21.008Z,100250
2017-05-23T01:54:20.017Z,100248
2017-05-23T01:55:21.183Z,100239
2017-05-23T01:56:20.994Z,100247
2017-05-23T01:57:20.065Z,100253
2017-05-23T01:58:21.039Z,100245
2017-05-23T01:59:20.102Z,100248
2017-05-23T02:00:21.124Z,100244
2017-05-23T02:01:20.401Z,100249
2017-05-23T02:02:21.188Z,100253
2017-05-23T02:03:20.319Z,100252
2017-05-23T02:04:20.330Z,100251
2017-05-23T02:05:21.446Z,100254
2017-05-23T02:06:21.481Z,100257
2017-05-23T02:07:21.731Z,100255
2017-05-23T02:08:21.606Z,100255
2017-05-23T02:09:20.712Z,100249
2017-05-23T02:10:21.723Z,100256
2017-05-23T02:11:21.799Z,100260
2017-05-23T02:12:21.953Z,100253
2017-05-23T02:13:21.835Z,100256
2017-05-23T02:14:20.923Z,100255
2017-05-23T02:15:21.974Z,100257
2017-05-23T02:16:21.041Z,100249
2017-05-23T02:17:22.022Z,100258
2017-05-23T02:18:22.372Z,100249
2017-05-23T02:19:22.194Z,100257
2017-05-23T02:20:21.257Z,100253
2017-05-23T02:21:22.235Z,100256
2017-05-23T02:22:21.267Z,100260
2017-05-23T02:23:22.340Z,100263
2017-05-23T02:24:22.531Z,100261
2017-05-23T02:25:21.483Z,100261
2017-05-23T02:26:21.543Z,100261
2017-05-23T02:27:22.502Z,100261
2017-05-23T02:28:21.609Z,100257
2017-05-23T02:29:22.580Z,100255
2017-05-23T02:30:22.937Z,100260
2017-05-23T02:31:22.655Z,100249
2017-05-23T02:32:22.703Z,100256
2017-05-23T02:33:22.725Z,100252
2017-05-23T02:34:22.773Z,100258
2017-05-23T02:35:22.872Z,100249
2017-05-23T02:36:23.084Z,100256
2017-05-23T02:37:22.047Z,100260
2017-05-23T02:38:21.996Z,100255
2017-05-23T02:39:23.028Z,100256
2017-05-23T02:40:23.069Z,100249
2017-05-23T02:41:23.142Z,100258
2017-05-23T02:42:23.307Z,100260
2017-05-23T02:43:22.234Z,100263
2017-05-23T02:44:23.201Z,100262
2017-05-23T02:45:22.288Z,100259
2017-05-23T02:46:22.346Z,100262
2017-05-23T02:47:22.397Z,100254
2017-05-23T02:48:23.661Z,100261
2017-05-23T02:49:23.402Z,100265
2017-05-23T02:50:22.505Z,100264
2017-05-23T02:51:22.588Z,100262
2017-05-23T02:52:23.609Z,100258
2017-05-23T02:53:22.692Z,100259
2017-05-23T02:54:23.883Z,100260
2017-05-23T02:55:22.811Z,100257
2017-05-23T02:56:23.857Z,100259
2017-05-23T02:57:23.824Z,100254
2017-05-23T02:58:23.854Z,100257
2017-05-23T02:59:23.925Z,100255
2017-05-23T03:00:23.137Z,100245
2017-05-23T03:01:23.056Z,100253
2017-05-23T03:02:23.057Z,100257
2017-05-23T03:03:24.002Z,100252
2017-05-23T03:04:23.078Z,100245
2017-05-23T03:05:24.068Z,100253
2017-05-23T03:06:23.277Z,100248
2017-05-23T03:07:24.189Z,100253
2017-05-23T03:08:24.233Z,100257
2017-05-23T03:09:24.254Z,100256
2017-05-23T03:10:24.299Z,100258
2017-05-23T03:11:23.365Z,100260
2017-05-23T03:12:24.665Z,100263
2017-05-23T03:13:23.470Z,100261
2017-05-23T03:14:24.444Z,100257
2017-05-23T03:15:24.523Z,100264
2017-05-23T03:16:23.603Z,100260
2017-05-23T03:17:23.637Z,100261
2017-05-23T03:18:23.962Z,100258
2017-05-23T03:19:24.770Z,100264
2017-05-23T03:20:24.795Z,100258
2017-05-23T03:21:24.839Z,100267
2017-05-23T03:22:23.852Z,100263
2017-05-23T03:23:23.948Z,100264
2017-05-23T03:24:24.128Z,100265
2017-05-23T03:25:23.973Z,100260
2017-05-23T03:26:24.992Z,100257
2017-05-23T03:27:25.047Z,100258
2017-05-23T03:28:24.156Z,100248
2017-05-23T03:29:24.235Z,100254
2017-05-23T03:30:25.347Z,100254
2017-05-23T03:31:24.238Z,100256
2017-05-23T03:32:25.290Z,100254
2017-05-23T03:33:25.336Z,100248
2017-05-23T03:34:24.460Z,100250
2017-05-23T03:35:25.421Z,100243
2017-05-23T03:36:24.708Z,100254
2017-05-23T03:37:24.566Z,100251
2017-05-23T03:38:25.575Z,100252
2017-05-23T03:39:24.615Z,100246
2017-05-23T03:40:25.656Z,100248
2017-05-23T03:41:24.703Z,100237
2017-05-23T03:42:25.081Z,100248
2017-05-23T03:43:25.759Z,100244
2017-05-23T03:44:25.859Z,100246
2017-05-23T03:45:24.982Z,100242
2017-05-23T03:46:25.048Z,100244
2017-05-23T03:47:25.089Z,100235
2017-05-23T03:48:26.239Z,100245
2017-05-23T03:49:26.086Z,100246
2017-05-23T03:50:25.157Z,100246
2017-05-23T03:51:26.153Z,100245
2017-05-23T03:52:25.284Z,100251
2017-05-23T03:53:26.252Z,100251
2017-05-23T03:54:26.515Z,100254
2017-05-23T03:55:26.368Z,100251
2017-05-23T03:56:26.446Z,100242
2017-05-23T03:57:25.587Z,100259
2017-05-23T03:58:25.647Z,100257
2017-05-23T03:59:25.656Z,100257
2017-05-23T04:00:26.908Z,100256
2017-05-23T04:01:25.779Z,100255
2017-05-23T04:02:26.793Z,100257
2017-05-23T04:03:26.874Z,100254
2017-05-23T04:04:26.942Z,100257
2017-05-23T04:05:26.994Z,100255
2017-05-23T04:06:26.262Z,100264
2017-05-23T04:07:26.104Z,100255
2017-05-23T04:08:26.134Z,100259
2017-05-23T04:09:26.151Z,100259
2017-05-23T04:10:26.230Z,100263
2017-05-23T04:11:26.322Z,100261
2017-05-23T04:12:27.650Z,100265
2017-05-23T04:13:27.384Z,100256
2017-05-23T04:14:27.386Z,100266
2017-05-23T04:15:26.526Z,100257
2017-05-23T04:16:26.474Z,100266
2017-05-23T04:17:27.529Z,100269
2017-05-23T04:18:27.808Z,100263
2017-05-23T04:19:27.607Z,100264
2017-05-23T04:20:26.607Z,100266
2017-05-23T04:21:26.673Z,100266
2017-05-23T04:22:26.730Z,100265
2017-05-23T04:23:26.790Z,100264
2017-05-23T04:24:26.991Z,100268
2017-05-23T04:25:27.822Z,100265
2017-05-23T04:26:26.933Z,100269
2017-05-23T04:27:26.983Z,100267
2017-05-23T04:28:28.044Z,100270
2017-05-23T04:29:28.100Z,100268
2017-05-23T04:30:28.431Z,100268
2017-05-23T04:31:27.174Z,100268
2017-05-23T04:32:27.180Z,100274
2017-05-23T04:33:28.182Z,100272
2017-05-23T04:34:28.272Z,100272
2017-05-23T04:35:27.264Z,100273
2017-05-23T04:36:28.556Z,100270
2017-05-23T04:37:27.416Z,100273
2017-05-23T04:38:27.458Z,100266
2017-05-23T04:39:28.512Z,100273
2017-05-23T04:40:27.541Z,100272
2017-05-23T04:41:28.626Z,100272
2017-05-23T04:42:28.993Z,100265
2017-05-23T04:43:28.731Z,100274
2017-05-23T04:44:28.794Z,100265
2017-05-23T04:45:27.920Z,100276
2017-05-23T04:46:28.928Z,100276
2017-05-23T04:47:28.988Z,100272
2017-05-23T04:48:29.190Z,100294
2017-05-23T04:49:28.031Z,100287
2017-05-23T04:50:28.079Z,100289
2017-05-23T04:51:28.176Z,100289
2017-05-23T04:52:28.146Z,100294
2017-05-23T04:53:28.834Z,100288
2017-05-23T04:54:29.256Z,100300
2017-05-23T04:55:29.359Z,100299
2017-05-23T04:56:29.361Z,100303
2017-05-23T04:57:28.430Z,100306
2017-05-23T04:58:28.466Z,100304
2017-05-23T04:59:29.491Z,100304
2017-05-23T05:00:28.528Z,100305
2017-05-23T05:01:29.609Z,100302
2017-05-23T05:02:29.615Z,100305
2017-05-23T05:03:29.648Z,100303
2017-05-23T05:04:28.726Z,100302
2017-05-23T05:05:29.723Z,100306
2017-05-23T05:06:28.826Z,100306
2017-05-23T05:07:28.805Z,100309
2017-05-23T05:08:28.895Z,100305
2017-05-23T05:09:28.937Z,100309
2017-05-23T05:10:29.976Z,100310
2017-05-23T05:11:29.004Z,100310
2017-05-23T05:13:16.836Z,100314
2017-05-23T05:14:16.030Z,100307
2017-05-23T05:15:16.909Z,100312
2017-05-23T05:16:16.022Z,100307
2017-05-23T05:17:16.020Z,100312
2017-05-23T05:18:17.061Z,100309
2017-05-23T05:19:17.270Z,100312
2017-05-23T05:20:16.275Z,100307
2017-05-23T05:21:16.329Z,100312
2017-05-23T05:22:17.350Z,100314
2017-05-23T05:23:16.386Z,100306
2017-05-23T05:24:16.432Z,100313
2017-05-23T05:25:16.395Z,100308
2017-05-23T05:26:17.576Z,100322
2017-05-23T05:27:18.726Z,100313
2017-05-23T05:28:16.599Z,100321
2017-05-23T05:29:17.659Z,100322
2017-05-23T05:30:17.728Z,100324
2017-05-23T05:31:18.765Z,100314
2017-05-23T05:32:16.849Z,100307
2017-05-23T05:33:17.852Z,100318
2017-05-23T05:34:16.884Z,100309
2017-05-23T05:35:17.000Z,100320
2017-05-23T05:36:17.052Z,100310
2017-05-23T05:37:17.096Z,100328
2017-05-23T05:38:18.135Z,100315
2017-05-23T05:39:17.209Z,100314
2017-05-23T05:40:17.247Z,100321
2017-05-23T05:41:17.302Z,100310
2017-05-23T05:42:17.318Z,100323
2017-05-23T05:43:18.356Z,100323
2017-05-23T05:44:18.426Z,100324
2017-05-23T05:45:18.298Z,100327
2017-05-23T05:46:18.557Z,100320
2017-05-23T05:47:18.628Z,100324
2017-05-23T05:48:18.770Z,100324
2017-05-23T05:49:18.841Z,100324
2017-05-23T05:50:18.881Z,100327
2017-05-23T05:51:17.875Z,100332
2017-05-23T05:52:17.927Z,100331
2017-05-23T05:53:18.024Z,100332
2017-05-23T05:54:19.251Z,100335
2017-05-23T05:55:18.156Z,100334
2017-05-23T05:56:18.178Z,100349
2017-05-23T05:57:19.827Z,100347
2017-05-23T05:58:18.327Z,100341
2017-05-23T05:59:19.336Z,100338
2017-05-23T06:00:18.325Z,100346
2017-05-23T06:01:19.110Z,100339
2017-05-23T06:02:19.382Z,100335
2017-05-23T06:03:19.432Z,100337
2017-05-23T06:04:19.522Z,100337
2017-05-23T06:05:19.651Z,100335
2017-05-23T06:06:18.713Z,100335
2017-05-23T06:07:19.726Z,100340
2017-05-23T06:08:18.746Z,100336
2017-05-23T06:09:19.717Z,100336
2017-05-23T06:10:19.817Z,100340
2017-05-23T06:11:19.791Z,100339
2017-05-23T06:12:18.882Z,100337
2017-05-23T06:13:19.848Z,100332
2017-05-23T06:14:19.845Z,100338
2017-05-23T06:15:19.889Z,100339
2017-05-23T06:16:19.873Z,100337
2017-05-23T06:17:20.031Z,100336
2017-05-23T06:18:19.135Z,100340
2017-05-23T06:19:20.148Z,100330
2017-05-23T06:20:19.123Z,100335
2017-05-23T06:21:26.255Z,100334
2017-05-23T06:22:20.221Z,100334
2017-05-23T06:23:19.377Z,100338
2017-05-23T06:24:20.366Z,100332
2017-05-23T06:25:20.346Z,100340
2017-05-23T06:26:20.412Z,100345
2017-05-23T06:27:20.453Z,100342
2017-05-23T06:28:19.605Z,100343
2017-05-23T06:29:20.560Z,100334
2017-05-23T06:30:19.664Z,100336
2017-05-23T06:31:19.665Z,100343
2017-05-23T06:32:20.730Z,100340
2017-05-23T06:33:20.498Z,100341
2017-05-23T06:34:19.896Z,100340
2017-05-23T06:35:20.948Z,100337
2017-05-23T06:36:21.035Z,100348
2017-05-23T06:37:20.127Z,100338
2017-05-23T06:38:20.899Z,100346
2017-05-23T06:39:21.004Z,100346
2017-05-23T06:40:21.336Z,100350
2017-05-23T06:41:20.376Z,100353
2017-05-23T06:42:21.085Z,100352
2017-05-23T06:43:20.504Z,100356
2017-05-23T06:44:21.564Z,100351
2017-05-23T06:45:21.223Z,100359
2017-05-23T06:46:21.633Z,100359
2017-05-23T06:47:20.650Z,100355
2017-05-23T06:48:21.263Z,100356
2017-05-23T06:49:21.979Z,100348
2017-05-23T06:50:20.789Z,100363
2017-05-23T06:51:22.004Z,100359
2017-05-23T06:52:21.922Z,100364
2017-05-23T06:53:20.962Z,100359
2017-05-23T06:54:21.095Z,100361
2017-05-23T06:55:21.118Z,100360
2017-05-23T06:56:22.185Z,100358
2017-05-23T06:57:21.205Z,100356
2017-05-23T06:58:22.235Z,100362
2017-05-23T06:59:22.331Z,100366
2017-05-23T07:00:22.335Z,100358
2017-05-23T07:01:22.406Z,100366
2017-05-23T07:02:22.416Z,100368
2017-05-23T07:03:23.083Z,100368
2017-05-23T07:04:22.582Z,100371
2017-05-23T07:05:21.691Z,100368
2017-05-23T07:06:22.663Z,100374
2017-05-23T07:07:22.735Z,100373
2017-05-23T07:08:22.400Z,100368
2017-05-23T07:09:21.850Z,100374
2017-05-23T07:10:22.851Z,100378
2017-05-23T07:11:23.124Z,100380
2017-05-23T07:12:22.048Z,100379
2017-05-23T07:13:22.054Z,100383
2017-05-23T07:14:22.104Z,100381
2017-05-23T07:15:22.167Z,100383
2017-05-23T07:16:23.283Z,100380
2017-05-23T07:17:23.258Z,100381
2017-05-23T07:18:23.476Z,100381
2017-05-23T07:19:22.395Z,100380
2017-05-23T07:20:22.475Z,100374
2017-05-23T07:21:22.538Z,100381
2017-05-23T07:22:22.578Z,100376
2017-05-23T07:23:23.596Z,100380
2017-05-23T07:24:23.534Z,100376
2017-05-23T07:25:22.622Z,100377
2017-05-23T07:26:22.632Z,100382
2017-05-23T07:27:23.633Z,100377
2017-05-23T07:28:23.635Z,100377
2017-05-23T07:29:22.714Z,100372
2017-05-23T07:30:22.796Z,100377
2017-05-23T07:31:23.831Z,100379
2017-05-23T07:32:22.855Z,100378
2017-05-23T07:33:24.089Z,100385
2017-05-23T07:34:25.055Z,100382
2017-05-23T07:35:23.031Z,100376
2017-05-23T07:36:23.000Z,100377
2017-05-23T07:37:24.050Z,100378
2017-05-23T07:38:24.108Z,100375
2017-05-23T07:39:23.934Z,100380
2017-05-23T07:40:23.164Z,100381
2017-05-23T07:41:24.017Z,100376
2017-05-23T07:42:24.516Z,100375
2017-05-23T07:43:24.306Z,100373
2017-05-23T07:44:23.411Z,100370
2017-05-23T07:45:23.515Z,100382
2017-05-23T07:46:23.524Z,100370
2017-05-23T07:47:24.543Z,100382
2017-05-23T07:48:23.619Z,100379
2017-05-23T07:49:23.613Z,100377
2017-05-23T07:50:23.702Z,100376
2017-05-23T07:51:23.785Z,100372
2017-05-23T07:52:24.753Z,100378
2017-05-23T07:53:23.908Z,100381
2017-05-23T07:54:23.913Z,100382
2017-05-23T07:55:25.138Z,100382
2017-05-23T07:56:24.108Z,100376
2017-05-23T07:57:24.668Z,100372
2017-05-23T07:58:25.152Z,100374
2017-05-23T07:59:25.248Z,100374
2017-05-23T08:00:25.210Z,100371
2017-05-23T08:01:24.939Z,100365
2017-05-23T08:02:24.325Z,100371
2017-05-23T08:03:25.650Z,100372
2017-05-23T08:04:25.454Z,100371
2017-05-23T08:05:24.526Z,100376
2017-05-23T08:06:25.570Z,100377
2017-05-23T08:07:26.264Z,100379
2017-05-23T08:08:25.219Z,100377
2017-05-23T08:09:24.801Z,100380
2017-05-23T08:10:24.804Z,100366
2017-05-23T08:11:24.899Z,100373
2017-05-23T08:12:26.500Z,100373
2017-05-23T08:13:25.600Z,100373
2017-05-23T08:14:27.908Z,100372
2017-05-23T08:15:26.055Z,100371
2017-05-23T08:16:25.854Z,100367
2017-05-23T08:17:26.457Z,100371
2017-05-23T08:18:27.413Z,100375
2017-05-23T08:19:27.494Z,100374
2017-05-23T08:20:26.203Z,100380
2017-05-23T08:21:25.942Z,100376
2017-05-23T08:22:25.307Z,100378
2017-05-23T08:23:26.295Z,100375
2017-05-23T08:24:26.342Z,100378
2017-05-23T08:25:25.395Z,100377
2017-05-23T08:26:25.437Z,100377
2017-05-23T08:27:25.541Z,100373
2017-05-23T08:28:25.832Z,100377
2017-05-23T08:29:26.678Z,100379
2017-05-23T08:30:25.720Z,100374
2017-05-23T08:31:25.768Z,100374
2017-05-23T08:32:26.521Z,100372
2017-05-23T08:33:25.890Z,100374
2017-05-23T08:34:25.810Z,100377
2017-05-23T08:35:27.512Z,100368
2017-05-23T08:36:27.480Z,100370
2017-05-23T08:37:26.987Z,100376
2017-05-23T08:38:27.730Z,100377
2017-05-23T08:39:27.883Z,100379
2017-05-23T08:40:27.059Z,100382
2017-05-23T08:41:26.921Z,100380
2017-05-23T08:42:26.226Z,100377
2017-05-23T08:43:26.215Z,100378
2017-05-23T08:44:26.857Z,100378
2017-05-23T08:45:26.535Z,100379
2017-05-23T08:46:27.503Z,100376
2017-05-23T08:47:27.291Z,100387
2017-05-23T08:48:28.608Z,100383
2017-05-23T08:49:29.317Z,100385
2017-05-23T08:50:27.461Z,100387
2017-05-23T08:51:26.468Z,100382
2017-05-23T08:52:26.591Z,100380
2017-05-23T08:53:28.335Z,100383
2017-05-23T08:54:27.655Z,100383
2017-05-23T08:55:26.766Z,100377
2017-05-23T08:56:27.708Z,100387
2017-05-23T08:57:28.298Z,100387
2017-05-23T08:58:27.793Z,100391
2017-05-23T08:59:26.866Z,100387
2017-05-23T09:00:26.947Z,100395
2017-05-23T09:01:26.995Z,100380
2017-05-23T09:02:27.264Z,100390
2017-05-23T09:03:28.068Z,100389
2017-05-23T09:04:27.181Z,100390
2017-05-23T09:05:28.154Z,100389
2017-05-23T09:06:29.204Z,100383
2017-05-23T09:07:29.976Z,100382
2017-05-23T09:08:28.392Z,100387
2017-05-23T09:09:28.191Z,100382
2017-05-23T09:10:27.530Z,100378
2017-05-23T09:11:29.186Z,100385
2017-05-23T09:12:28.538Z,100384
2017-05-23T09:13:29.269Z,100377
2017-05-23T09:14:27.724Z,100386
2017-05-23T09:15:29.360Z,100388
2017-05-23T09:16:28.812Z,100382
2017-05-23T09:17:28.937Z,100389
2017-05-23T09:18:30.526Z,100390
2017-05-23T09:19:28.979Z,100391
2017-05-23T09:20:29.708Z,100394
2017-05-23T09:21:28.162Z,100397
2017-05-23T09:22:29.244Z,100393
2017-05-23T09:23:29.584Z,100399
2017-05-23T09:24:28.327Z,100390
2017-05-23T09:25:28.396Z,100395
2017-05-23T09:26:28.955Z,100395
2017-05-23T09:27:28.485Z,100393
2017-05-23T09:28:29.049Z,100393
2017-05-23T09:29:29.201Z,100401
2017-05-23T09:30:29.144Z,100401
2017-05-23T09:31:29.139Z,100403
2017-05-23T09:32:29.228Z,100404
2017-05-23T09:33:28.737Z,100398
2017-05-23T09:34:28.781Z,100397
2017-05-23T09:35:29.393Z,100403
2017-05-23T09:36:29.506Z,100405
2017-05-23T09:37:29.521Z,100404
2017-05-23T09:38:30.240Z,100408
2017-05-23T09:39:29.713Z,100394
2017-05-23T09:40:29.048Z,100402
2017-05-23T09:41:29.698Z,100400
2017-05-23T09:42:29.837Z,100407
2017-05-23T09:43:29.263Z,100396
2017-05-23T09:44:29.301Z,100405
2017-05-23T09:45:29.336Z,100401
2017-05-23T09:46:29.856Z,100397
2017-05-23T09:47:30.721Z,100413
2017-05-23T09:48:30.010Z,100409
2017-05-23T09:49:29.534Z,100401
2017-05-23T09:50:30.653Z,100397
2017-05-23T09:51:30.313Z,100410
2017-05-23T09:52:31.576Z,100410
2017-05-23T09:53:30.251Z,100408
2017-05-23T09:54:30.337Z,100408
2017-05-23T09:55:30.412Z,100398
2017-05-23T09:56:30.642Z,100421
2017-05-23T09:57:31.792Z,100421
2017-05-23T09:58:31.118Z,100417
2017-05-23T09:59:30.716Z,100409
2017-05-23T10:00:31.345Z,100405
2017-05-23T10:01:33.093Z,100411
2017-05-23T10:02:31.019Z,100403
2017-05-23T10:03:33.479Z,100405
2017-05-23T10:04:34.916Z,100406
2017-05-23T10:05:35.327Z,100409
2017-05-23T10:06:33.908Z,100414
2017-05-23T10:07:33.505Z,100415
2017-05-23T10:08:34.427Z,100424
2017-05-23T10:09:33.791Z,100422
2017-05-23T10:10:35.406Z,100417
2017-05-23T10:11:36.947Z,100418
2017-05-23T10:13:30.880Z,100402
2017-05-23T10:14:34.872Z,100415
2017-05-23T10:15:32.612Z,100421
2017-05-23T10:16:31.928Z,100419
2017-05-23T10:17:32.258Z,100419
2017-05-23T10:18:33.247Z,100415
2017-05-23T10:19:32.546Z,100418
2017-05-23T10:20:34.004Z,100411
2017-05-23T10:21:32.579Z,100415
2017-05-23T10:22:34.161Z,100434
2017-05-23T10:23:32.480Z,100406
2017-05-23T10:24:34.084Z,100413
2017-05-23T10:25:31.926Z,100409
2017-05-23T10:26:32.835Z,100421
2017-05-23T10:27:31.430Z,100415
2017-05-23T10:28:32.119Z,100417
2017-05-23T10:29:33.097Z,100417
2017-05-23T10:30:32.255Z,100420
2017-05-23T10:31:31.690Z,100418
2017-05-23T10:32:33.284Z,100415
2017-05-23T10:33:31.806Z,100407
2017-05-23T10:34:34.130Z,100413
2017-05-23T10:35:33.058Z,100412
2017-05-23T10:36:32.777Z,100408
2017-05-23T10:37:32.708Z,100402
2017-05-23T10:38:33.089Z,100411
2017-05-23T10:39:33.814Z,100408
2017-05-23T10:40:34.599Z,100410
2017-05-23T10:41:32.656Z,100407
2017-05-23T10:42:35.995Z,100409
2017-05-23T10:43:32.236Z,100413
2017-05-23T10:44:33.380Z,100407
2017-05-23T10:45:32.818Z,100414
2017-05-23T10:46:34.213Z,100406
2017-05-23T10:47:32.335Z,100428
2017-05-23T10:48:33.425Z,100406
2017-05-23T10:49:32.446Z,100398
2017-05-23T10:50:33.211Z,100417
2017-05-23T10:51:32.617Z,100419
2017-05-23T10:52:32.995Z,100427
2017-05-23T10:53:33.229Z,100412
2017-05-23T10:54:35.834Z,100412
2017-05-23T10:55:34.030Z,100416
2017-05-23T10:56:33.279Z,100418
2017-05-23T10:57:34.198Z,100411
2017-05-23T10:58:33.979Z,100420
2017-05-23T10:59:34.245Z,100413
2017-05-23T11:00:35.592Z,100414
2017-05-23T11:01:32.984Z,100413
2017-05-23T11:02:34.161Z,100414
2017-05-23T11:03:35.519Z,100417
2017-05-23T11:04:36.580Z,100417
2017-05-23T11:05:34.907Z,100409
2017-05-23T11:06:33.753Z,100408
2017-05-23T11:07:33.906Z,100414
2017-05-23T11:08:33.914Z,100412
2017-05-23T11:09:34.566Z,100412
2017-05-23T11:10:34.572Z,100409
2017-05-23T11:11:35.190Z,100408
2017-05-23T11:12:33.762Z,100408
2017-05-23T11:13:34.881Z,100420
2017-05-23T11:14:34.319Z,100418
2017-05-23T11:15:33.794Z,100421
2017-05-23T11:16:34.423Z,100420
2017-05-23T11:17:34.520Z,100423
2017-05-23T11:18:35.350Z,100409
2017-05-23T11:19:34.624Z,100412
2017-05-23T11:20:34.030Z,100421
2017-05-23T11:21:34.555Z,100420
2017-05-23T11:22:34.028Z,100429
2017-05-23T11:23:34.596Z,100428
2017-05-23T11:24:34.646Z,100436
2017-05-23T11:25:35.804Z,100434
2017-05-23T11:26:37.364Z,100436
2017-05-23T11:27:35.683Z,100434
2017-05-23T11:28:34.209Z,100433
2017-05-23T11:29:36.116Z,100438
2017-05-23T11:30:35.822Z,100429
2017-05-23T11:31:34.919Z,100435
2017-05-23T11:32:34.947Z,100439
2017-05-23T11:33:34.578Z,100428
2017-05-23T11:34:34.569Z,100431
2017-05-23T11:35:35.136Z,100435
2017-05-23T11:36:34.728Z,100433
2017-05-23T11:37:35.946Z,100431
2017-05-23T11:38:34.875Z,100432
2017-05-23T11:39:34.917Z,100441
2017-05-23T11:40:35.577Z,100441
2017-05-23T11:41:37.004Z,100448
2017-05-23T11:42:36.928Z,100443
2017-05-23T11:43:35.698Z,100448
2017-05-23T11:44:37.244Z,100453
2017-05-23T11:45:36.474Z,100455
2017-05-23T11:46:36.768Z,100459
2017-05-23T11:47:36.161Z,100448
2017-05-23T11:48:35.485Z,100458
2017-05-23T11:49:35.492Z,100454
2017-05-23T11:50:35.487Z,100451
2017-05-23T11:51:36.804Z,100451
2017-05-23T11:52:37.364Z,100457
2017-05-23T11:53:36.864Z,100451
2017-05-23T11:54:36.144Z,100461
2017-05-23T11:55:36.228Z,100432
2017-05-23T11:56:35.784Z,100451
2017-05-23T11:57:35.843Z,100468
2017-05-23T11:58:38.588Z,100466
2017-05-23T11:59:36.544Z,100470
2017-05-23T12:00:37.165Z,100462
2017-05-23T12:01:37.960Z,100464
2017-05-23T12:02:36.713Z,100466
2017-05-23T12:03:38.029Z,100464
2017-05-23T12:04:36.711Z,100451
2017-05-23T12:05:37.070Z,100462
2017-05-23T12:06:39.129Z,100468
2017-05-23T12:07:36.973Z,100461
2017-05-23T12:08:38.114Z,100463
2017-05-23T12:09:38.284Z,100456
2017-05-23T12:10:37.600Z,100452
2017-05-23T12:11:37.977Z,100456
2017-05-23T12:12:37.343Z,100455
2017-05-23T12:13:36.611Z,100461
2017-05-23T12:14:36.618Z,100460
2017-05-23T12:15:36.656Z,100466
2017-05-23T12:16:39.025Z,100482
2017-05-23T12:17:36.714Z,100458
2017-05-23T12:18:37.339Z,100465
2017-05-23T12:19:38.065Z,100461
2017-05-23T12:20:36.800Z,100458
2017-05-23T12:21:36.918Z,100459
2017-05-23T12:22:40.258Z,100455
2017-05-23T12:23:37.047Z,100458
2017-05-23T12:24:37.119Z,100454
2017-05-23T12:25:39.181Z,100463
2017-05-23T12:26:37.193Z,100460
2017-05-23T12:27:39.229Z,100459
2017-05-23T12:28:38.069Z,100462
2017-05-23T12:29:37.982Z,100465
2017-05-23T12:30:38.538Z,100466
2017-05-23T12:31:37.941Z,100463